Time;durP1;ratioP1;P1;durP2;ratioP2;P2;SDS_P1;SDS_P2;PMS_P1;PMS_P2;Temp;Humidity;BMP_temperature;BMP_pressure;BME280_temperature;BME280_humidity;BME280_pressure;Samples;Min_cycle;Max_cycle;Signal;HPM_P1;HPM_P2
2023/03/10 00:00:24;;;;;;;0.52;0.52;;;3.20;99.90;;;;;;5027874;28;20045;-61
2023/03/10 00:02:50;;;;;;;0.45;0.45;;;3.20;99.90;;;;;;5028464;28;20045;-60
2023/03/10 00:05:19;;;;;;;0.25;0.25;;;3.20;99.90;;;;;;5029770;28;20049;-60
2023/03/10 00:07:45;;;;;;;0.38;0.38;;;3.20;99.90;;;;;;5028673;28;20042;-60
2023/03/10 00:10:13;;;;;;;0.38;0.38;;;3.20;99.90;;;;;;5018581;28;20084;-61
2023/03/10 00:12:39;;;;;;;0.20;0.20;;;3.20;99.90;;;;;;5024195;28;20037;-60
2023/03/10 00:15:07;;;;;;;0.60;0.60;;;3.20;99.90;;;;;;5029608;28;20044;-60
2023/03/10 00:17:33;;;;;;;0.52;0.52;;;3.20;99.90;;;;;;5028905;28;20037;-61
2023/03/10 00:19:58;;;;;;;0.98;0.98;;;3.20;99.90;;;;;;5026486;28;20056;-60
2023/03/10 00:22:24;;;;;;;0.90;0.90;;;3.20;99.90;;;;;;5029128;28;20037;-60
2023/03/10 00:24:49;;;;;;;0.50;0.50;;;3.20;99.90;;;;;;5029036;28;20126;-61
2023/03/10 00:27:15;;;;;;;0.55;0.55;;;3.20;99.90;;;;;;5028699;28;20707;-61
2023/03/10 00:29:41;;;;;;;0.17;0.17;;;3.20;99.90;;;;;;5026623;28;20041;-60
2023/03/10 00:32:06;;;;;;;1.17;1.05;;;3.20;99.90;;;;;;5028833;28;20087;-60
2023/03/10 00:34:32;;;;;;;0.10;0.10;;;3.30;99.90;;;;;;5027164;28;20043;-60
2023/03/10 00:36:58;;;;;;;0.25;0.25;;;3.30;99.90;;;;;;5028214;28;20076;-60
2023/03/10 00:39:23;;;;;;;0.73;0.73;;;3.30;99.90;;;;;;5024905;28;20052;-61
2023/03/10 00:41:49;;;;;;;0.30;0.30;;;3.20;99.90;;;;;;5017717;28;20132;-60
2023/03/10 00:44:15;;;;;;;1.08;1.02;;;3.20;99.90;;;;;;5027718;28;20037;-60
2023/03/10 00:46:40;;;;;;;0.25;0.25;;;3.20;99.90;;;;;;5028718;28;20041;-61
2023/03/10 00:49:07;;;;;;;0.90;0.90;;;3.20;99.90;;;;;;5026640;28;20038;-61
2023/03/10 00:51:33;;;;;;;0.60;0.60;;;3.20;99.90;;;;;;5023507;28;20087;-60
2023/03/10 00:54:02;;;;;;;0.10;0.10;;;3.20;99.90;;;;;;5028953;28;20260;-61
2023/03/10 00:56:29;;;;;;;0.10;0.10;;;3.20;99.90;;;;;;5028378;28;20060;-60
2023/03/10 00:58:58;;;;;;;0.35;0.35;;;3.20;99.90;;;;;;5009256;28;20044;-61
2023/03/10 01:01:36;;;;;;;0.20;0.20;;;3.20;99.90;;;;;;5028498;28;20041;-61
2023/03/10 01:04:07;;;;;;;0.32;0.32;;;3.30;99.90;;;;;;5027774;28;20640;-60
2023/03/10 01:06:34;;;;;;;3.05;2.85;;;3.30;99.90;;;;;;5027453;28;20716;-60
2023/03/10 01:09:00;;;;;;;3.58;1.67;;;3.30;99.90;;;;;;5026616;28;20396;-60
2023/03/10 01:11:28;;;;;;;0.55;0.55;;;3.30;99.90;;;;;;5028757;28;20041;-61
2023/03/10 01:13:57;;;;;;;2.55;2.20;;;3.30;99.90;;;;;;5028340;28;20489;-60
2023/03/10 01:16:23;;;;;;;1.90;1.77;;;3.30;99.90;;;;;;5026452;28;20111;-61
2023/03/10 01:18:48;;;;;;;3.78;1.48;;;3.30;99.90;;;;;;5028190;28;20037;-60
2023/03/10 01:21:35;;;;;;;0.10;0.10;;;3.30;99.90;;;;;;5028222;28;20045;-60
2023/03/10 01:24:01;;;;;;;3.75;1.27;;;3.30;99.90;;;;;;5026005;28;20132;-60
2023/03/10 01:26:28;;;;;;;0.40;0.40;;;3.30;99.90;;;;;;5027693;28;20087;-60
2023/03/10 01:28:53;;;;;;;1.33;1.27;;;3.40;99.90;;;;;;5027165;28;20116;-60
2023/03/10 01:31:19;;;;;;;0.43;0.43;;;3.30;99.90;;;;;;5009802;28;20049;-60
2023/03/10 01:33:45;;;;;;;0.10;0.10;;;3.40;99.90;;;;;;5027798;28;20501;-61
2023/03/10 01:36:17;;;;;;;0.68;0.68;;;3.30;99.90;;;;;;5026058;28;20049;-60
2023/03/10 01:38:43;;;;;;;1.48;1.30;;;3.30;99.90;;;;;;5026378;28;20038;-61
2023/03/10 01:41:10;;;;;;;0.20;0.20;;;3.40;99.90;;;;;;5026839;28;20122;-61
2023/03/10 01:43:43;;;;;;;0.52;0.52;;;3.30;99.90;;;;;;5025734;28;20481;-60
2023/03/10 01:46:27;;;;;;;;;;;3.40;99.90;;;;;;5027186;28;20053;-60
2023/03/10 01:49:04;;;;;;;0.20;0.20;;;3.40;99.90;;;;;;5027613;28;20011;-60
2023/03/10 01:51:33;;;;;;;0.38;0.38;;;3.30;99.90;;;;;;5029011;28;20033;-60
2023/03/10 01:54:00;;;;;;;0.13;0.13;;;3.30;99.90;;;;;;5032028;28;20049;-60
2023/03/10 01:56:25;;;;;;;0.10;0.10;;;3.30;99.90;;;;;;5030790;28;20041;-61
2023/03/10 01:58:51;;;;;;;0.20;0.20;;;3.30;99.90;;;;;;5030232;28;20440;-61
2023/03/10 02:01:17;;;;;;;0.30;0.30;;;3.30;99.90;;;;;;5031340;28;20128;-61
2023/03/10 02:03:46;;;;;;;0.30;0.30;;;3.30;99.90;;;;;;5031921;28;20045;-61
2023/03/10 02:06:15;;;;;;;0.35;0.35;;;3.30;99.90;;;;;;5029858;28;20088;-60
2023/03/10 02:08:45;;;;;;;0.47;0.47;;;3.30;99.90;;;;;;5031654;28;20045;-60
2023/03/10 02:11:12;;;;;;;0.20;0.20;;;3.30;99.90;;;;;;5030986;28;20049;-60
2023/03/10 02:13:38;;;;;;;0.20;0.20;;;3.30;99.90;;;;;;5030274;28;20045;-61
2023/03/10 02:16:04;;;;;;;0.20;0.20;;;3.30;99.90;;;;;;5031329;28;20114;-60
2023/03/10 02:18:31;;;;;;;0.30;0.30;;;3.20;99.90;;;;;;5030404;28;20060;-60
2023/03/10 02:21:08;;;;;;;0.85;0.85;;;3.30;99.90;;;;;;5021692;28;20516;-60
2023/03/10 02:23:43;;;;;;;0.52;0.52;;;3.30;99.90;;;;;;5028869;28;20064;-60
2023/03/10 02:26:16;;;;;;;0.10;0.10;;;3.30;99.90;;;;;;5023914;28;20056;-61
2023/03/10 02:28:42;;;;;;;0.10;0.10;;;3.30;99.90;;;;;;5026282;28;20055;-61
2023/03/10 02:31:09;;;;;;;0.32;0.32;;;3.30;99.90;;;;;;5031282;28;20284;-61
2023/03/10 02:33:36;;;;;;;0.28;0.28;;;3.30;99.90;;;;;;5028418;28;20045;-60
2023/03/10 02:36:16;;;;;;;0.10;0.10;;;3.30;99.90;;;;;;5031031;28;20072;-60
2023/03/10 02:38:42;;;;;;;0.10;0.10;;;3.30;99.90;;;;;;5031288;28;20046;-61
2023/03/10 02:41:29;;;;;;;1.55;1.45;;;3.30;99.90;;;;;;5029563;28;20539;-60
2023/03/10 02:43:58;;;;;;;0.20;0.20;;;3.30;99.90;;;;;;5010968;28;20057;-61
2023/03/10 02:46:25;;;;;;;0.15;0.15;;;3.30;99.90;;;;;;5012332;28;20080;-61
2023/03/10 02:48:50;;;;;;;0.13;0.13;;;3.30;99.90;;;;;;5029739;28;20041;-60
2023/03/10 02:51:24;;;;;;;0.30;0.30;;;3.30;99.90;;;;;;5028801;28;20056;-61
2023/03/10 02:53:50;;;;;;;0.10;0.10;;;3.30;99.90;;;;;;5029473;28;20651;-60
2023/03/10 02:56:16;;;;;;;1.05;0.95;;;3.30;99.90;;;;;;5030653;28;20116;-61
2023/03/10 02:58:42;;;;;;;0.20;0.20;;;3.20;99.90;;;;;;5029732;28;20041;-61
2023/03/10 03:01:07;;;;;;;0.20;0.20;;;3.30;99.90;;;;;;5011205;28;20429;-61
2023/03/10 03:03:33;;;;;;;0.10;0.10;;;3.20;99.90;;;;;;5030139;28;20417;-61
2023/03/10 03:05:59;;;;;;;0.98;0.98;;;3.30;99.90;;;;;;5029151;28;20041;-61
2023/03/10 03:08:25;;;;;;;0.25;0.25;;;3.20;99.90;;;;;;5029310;28;20524;-61
2023/03/10 03:10:51;;;;;;;0.10;0.10;;;3.20;99.90;;;;;;5029256;28;20385;-61
2023/03/10 03:13:17;;;;;;;0.13;0.13;;;3.20;99.90;;;;;;5030388;28;20041;-61
2023/03/10 03:15:42;;;;;;;0.35;0.35;;;3.30;99.90;;;;;;5029443;28;20053;-61
2023/03/10 03:18:08;;;;;;;6.40;1.13;;;3.20;99.90;;;;;;5030361;28;20079;-61
2023/03/10 03:20:36;;;;;;;2.10;1.15;;;3.20;99.90;;;;;;5027895;28;20083;-61
2023/03/10 03:23:03;;;;;;;0.30;0.30;;;3.20;99.90;;;;;;5029533;28;20046;-61
2023/03/10 03:25:29;;;;;;;0.45;0.45;;;3.20;99.90;;;;;;5029132;28;20073;-61
2023/03/10 03:27:56;;;;;;;0.40;0.40;;;3.20;99.90;;;;;;5029408;28;20112;-60
2023/03/10 03:30:24;;;;;;;0.20;0.20;;;3.20;99.90;;;;;;5029417;28;20049;-61
2023/03/10 03:32:50;;;;;;;0.70;0.70;;;3.10;99.90;;;;;;5029107;28;20042;-61
2023/03/10 03:35:23;;;;;;;0.10;0.10;;;3.20;99.90;;;;;;5028983;28;20115;-60
2023/03/10 03:37:49;;;;;;;0.10;0.10;;;3.20;99.90;;;;;;5028776;28;20045;-61
2023/03/10 03:40:15;;;;;;;0.10;0.10;;;3.10;99.90;;;;;;5011372;28;20505;-61
2023/03/10 03:42:47;;;;;;;0.10;0.10;;;3.20;99.90;;;;;;5029724;28;20096;-60
2023/03/10 03:45:15;;;;;;;2.75;1.27;;;3.20;99.90;;;;;;5028005;28;20060;-61
2023/03/10 03:47:41;;;;;;;1.95;0.95;;;3.10;99.90;;;;;;5029914;28;20060;-61
2023/03/10 03:50:08;;;;;;;0.10;0.10;;;3.10;99.90;;;;;;5028853;28;20057;-61
2023/03/10 03:52:34;;;;;;;0.73;0.68;;;3.10;99.90;;;;;;5026449;28;20037;-61
2023/03/10 03:54:59;;;;;;;0.20;0.20;;;3.10;99.90;;;;;;5029287;28;20392;-61
2023/03/10 03:57:26;;;;;;;0.10;0.10;;;3.10;99.90;;;;;;5029140;28;20034;-61
2023/03/10 03:59:52;;;;;;;0.40;0.40;;;3.10;99.90;;;;;;5028530;28;20041;-60
2023/03/10 04:02:17;;;;;;;0.10;0.10;;;3.10;99.90;;;;;;5028869;28;20049;-60
2023/03/10 04:04:43;;;;;;;0.40;0.40;;;3.00;99.90;;;;;;5028590;28;20037;-61
2023/03/10 04:07:09;;;;;;;2.75;2.47;;;3.00;99.90;;;;;;5028705;28;20106;-61
2023/03/10 04:09:37;;;;;;;1.05;1.05;;;3.00;99.90;;;;;;5029365;28;20045;-61
2023/03/10 04:12:02;;;;;;;0.20;0.20;;;3.10;99.90;;;;;;5029082;28;20046;-60
2023/03/10 04:14:28;;;;;;;0.47;0.47;;;3.00;99.90;;;;;;5028155;28;20045;-60
2023/03/10 04:16:54;;;;;;;0.22;0.22;;;3.00;99.90;;;;;;5027913;28;20055;-61
2023/03/10 04:19:19;;;;;;;0.40;0.40;;;3.00;99.90;;;;;;5026923;28;20049;-61
2023/03/10 04:21:45;;;;;;;0.20;0.20;;;3.00;99.90;;;;;;5028125;28;20037;-60
2023/03/10 04:24:10;;;;;;;0.10;0.10;;;2.90;99.90;;;;;;5028802;28;20052;-60
2023/03/10 04:26:36;;;;;;;0.20;0.20;;;2.90;99.90;;;;;;5028757;28;20049;-61
2023/03/10 04:29:01;;;;;;;0.43;0.43;;;2.80;99.90;;;;;;5028291;28;20120;-61
2023/03/10 04:31:27;;;;;;;0.70;0.70;;;2.80;99.90;;;;;;5028761;28;20544;-61
2023/03/10 04:33:53;;;;;;;0.77;0.68;;;2.80;99.90;;;;;;5025981;28;20045;-61
2023/03/10 04:36:20;;;;;;;0.38;0.38;;;2.80;99.90;;;;;;5029137;28;20056;-61
2023/03/10 04:38:45;;;;;;;0.40;0.40;;;2.80;99.90;;;;;;5028840;28;20448;-60
2023/03/10 04:41:11;;;;;;;0.43;0.43;;;2.70;99.90;;;;;;5027516;28;20087;-61
2023/03/10 04:43:37;;;;;;;0.47;0.47;;;2.70;99.90;;;;;;5028743;28;20386;-61
2023/03/10 04:46:04;;;;;;;0.20;0.20;;;2.70;99.90;;;;;;5029037;28;20037;-61
2023/03/10 04:48:30;;;;;;;0.20;0.20;;;2.60;99.90;;;;;;5027459;28;20038;-61
2023/03/10 04:51:01;;;;;;;1.27;0.75;;;2.60;99.90;;;;;;5019480;28;20053;-61
2023/03/10 04:53:27;;;;;;;2.72;1.15;;;2.60;99.90;;;;;;5027638;28;20045;-60
2023/03/10 04:55:53;;;;;;;1.25;1.25;;;2.60;99.90;;;;;;5027652;28;20053;-61
2023/03/10 04:58:20;;;;;;;2.38;2.28;;;2.60;99.90;;;;;;5029002;28;20045;-61
2023/03/10 05:00:47;;;;;;;0.22;0.22;;;2.60;99.90;;;;;;5028541;28;20057;-61
2023/03/10 05:03:12;;;;;;;2.67;2.38;;;2.60;99.90;;;;;;5009027;28;20045;-61
2023/03/10 05:05:38;;;;;;;0.77;0.77;;;2.60;99.90;;;;;;5027854;28;20607;-61
2023/03/10 05:08:04;;;;;;;0.40;0.40;;;2.60;99.90;;;;;;5025938;28;20150;-61
2023/03/10 05:10:30;;;;;;;0.40;0.40;;;2.60;99.90;;;;;;5028264;28;20045;-61
2023/03/10 05:12:56;;;;;;;0.30;0.30;;;2.50;99.90;;;;;;5027587;28;20048;-61
2023/03/10 05:15:22;;;;;;;0.20;0.20;;;2.50;99.90;;;;;;5027711;28;20045;-61
2023/03/10 05:17:47;;;;;;;0.20;0.20;;;2.50;99.90;;;;;;5027556;28;20099;-60
2023/03/10 05:20:14;;;;;;;0.63;0.63;;;2.50;99.90;;;;;;5021383;28;20073;-61
2023/03/10 05:22:40;;;;;;;0.63;0.63;;;2.50;99.90;;;;;;5026650;28;20385;-60
2023/03/10 05:25:08;;;;;;;0.90;0.90;;;2.50;99.90;;;;;;5026597;28;20041;-60
2023/03/10 05:27:35;;;;;;;0.40;0.40;;;2.50;99.90;;;;;;5028130;28;20116;-60
2023/03/10 05:30:01;;;;;;;0.10;0.10;;;2.50;99.90;;;;;;5026740;28;20452;-61
2023/03/10 05:32:27;;;;;;;0.10;0.10;;;2.40;99.90;;;;;;5027365;28;20045;-60
2023/03/10 05:34:52;;;;;;;0.47;0.47;;;2.40;99.90;;;;;;5027772;28;20400;-60
2023/03/10 05:37:18;;;;;;;0.90;0.90;;;2.40;99.90;;;;;;5027610;28;20100;-61
2023/03/10 05:39:44;;;;;;;0.20;0.20;;;2.40;99.90;;;;;;5027793;28;20130;-60
2023/03/10 05:42:11;;;;;;;0.43;0.43;;;2.50;99.90;;;;;;5026581;28;20080;-60
2023/03/10 05:44:37;;;;;;;1.08;1.08;;;2.50;99.90;;;;;;5027273;28;20053;-60
2023/03/10 05:47:04;;;;;;;0.45;0.45;;;2.40;99.90;;;;;;5026754;28;20105;-60
2023/03/10 05:49:30;;;;;;;0.20;0.20;;;2.40;99.90;;;;;;5026253;28;20366;-60
2023/03/10 05:51:57;;;;;;;1.95;1.75;;;2.40;99.90;;;;;;5015268;28;20084;-60
2023/03/10 05:54:22;;;;;;;0.20;0.20;;;2.40;99.90;;;;;;5027592;28;20536;-60
2023/03/10 05:56:48;;;;;;;2.13;1.98;;;2.30;99.90;;;;;;5027326;28;20132;-60
2023/03/10 05:59:14;;;;;;;0.22;0.22;;;2.30;99.90;;;;;;5008279;28;20045;-60
2023/03/10 06:01:39;;;;;;;2.05;1.95;;;2.40;99.90;;;;;;5004967;28;20056;-60
2023/03/10 06:04:05;;;;;;;0.68;0.68;;;2.30;99.90;;;;;;5026836;28;20220;-60
2023/03/10 06:06:31;;;;;;;0.32;0.32;;;2.30;99.90;;;;;;5008871;28;20054;-60
2023/03/10 06:08:57;;;;;;;3.50;1.95;;;2.40;99.90;;;;;;5023945;28;20532;-60
2023/03/10 06:11:22;;;;;;;0.10;0.10;;;2.40;99.90;;;;;;5026376;28;20045;-60
2023/03/10 06:13:48;;;;;;;0.82;0.82;;;2.30;99.90;;;;;;5028140;28;20120;-60
2023/03/10 06:16:14;;;;;;;1.05;1.05;;;2.40;99.90;;;;;;5009488;28;20049;-60
2023/03/10 06:18:39;;;;;;;4.90;2.85;;;2.30;99.90;;;;;;5006831;28;20080;-60
2023/03/10 06:21:10;;;;;;;0.80;0.80;;;2.30;99.90;;;;;;5024170;28;20033;-60
2023/03/10 06:23:37;;;;;;;1.55;1.48;;;2.30;99.90;;;;;;5026868;28;20045;-60
2023/03/10 06:26:10;;;;;;;1.30;1.30;;;2.30;99.90;;;;;;5025381;28;20067;-60
2023/03/10 06:28:39;;;;;;;0.20;0.20;;;2.30;99.90;;;;;;5027315;28;20408;-60
2023/03/10 06:31:07;;;;;;;1.02;1.02;;;2.30;99.90;;;;;;5026339;28;20041;-60
2023/03/10 06:33:37;;;;;;;0.13;0.13;;;2.30;99.90;;;;;;5020906;28;20041;-60
2023/03/10 06:36:03;;;;;;;0.15;0.15;;;2.30;99.90;;;;;;5023981;28;20048;-60
2023/03/10 06:38:29;;;;;;;3.20;1.27;;;2.30;99.90;;;;;;5023917;28;21238;-60
2023/03/10 06:40:55;;;;;;;0.20;0.20;;;2.30;99.90;;;;;;5021421;28;20050;-60
2023/03/10 06:43:21;;;;;;;2.35;2.15;;;2.30;99.90;;;;;;5025751;28;20452;-60
2023/03/10 06:45:47;;;;;;;0.43;0.43;;;2.30;99.90;;;;;;5030434;28;20041;-60
2023/03/10 06:48:13;;;;;;;1.88;0.75;;;2.30;99.90;;;;;;5025312;28;20405;-60
2023/03/10 06:50:40;;;;;;;1.63;1.52;;;2.30;99.90;;;;;;5024910;28;20033;-60
2023/03/10 06:53:06;;;;;;;3.13;2.10;;;2.30;99.90;;;;;;5028345;28;20041;-60
2023/03/10 06:55:32;;;;;;;0.35;0.35;;;2.30;99.90;;;;;;5027040;28;20088;-60
2023/03/10 06:57:57;;;;;;;2.47;1.58;;;2.30;99.90;;;;;;5030480;28;20492;-60
2023/03/10 07:00:23;;;;;;;0.40;0.40;;;2.40;99.90;;;;;;5028168;28;20064;-60
2023/03/10 07:02:48;;;;;;;0.43;0.43;;;2.40;99.90;;;;;;5027024;28;20045;-60
2023/03/10 07:05:14;;;;;;;1.95;0.65;;;2.30;99.90;;;;;;5022663;28;20709;-60
2023/03/10 07:07:40;;;;;;;0.43;0.43;;;2.40;99.90;;;;;;5025868;28;20889;-61
2023/03/10 07:10:06;;;;;;;0.77;0.77;;;2.40;99.90;;;;;;5029584;28;20044;-61
2023/03/10 07:12:31;;;;;;;0.88;0.68;;;2.40;99.90;;;;;;5029333;28;20045;-61
2023/03/10 07:14:57;;;;;;;1.00;1.00;;;2.40;99.90;;;;;;5027347;28;20228;-60
2023/03/10 07:17:24;;;;;;;3.63;1.08;;;2.40;99.90;;;;;;5029509;28;20045;-61
2023/03/10 07:19:50;;;;;;;0.32;0.32;;;2.50;99.90;;;;;;5025290;28;20038;-61
2023/03/10 07:22:16;;;;;;;0.30;0.30;;;2.50;99.90;;;;;;5028351;28;20045;-61
2023/03/10 07:24:41;;;;;;;1.55;1.38;;;2.50;99.90;;;;;;5028650;28;20041;-61
2023/03/10 07:27:07;;;;;;;0.22;0.22;;;2.50;99.90;;;;;;5027433;28;20053;-61
2023/03/10 07:29:33;;;;;;;0.30;0.30;;;2.50;99.90;;;;;;5011477;28;20457;-60
2023/03/10 07:31:59;;;;;;;0.30;0.30;;;2.60;99.90;;;;;;5029195;28;20037;-61
2023/03/10 07:34:24;;;;;;;0.20;0.20;;;2.50;99.90;;;;;;5026128;28;20052;-61
2023/03/10 07:36:50;;;;;;;0.15;0.15;;;2.60;99.90;;;;;;5025085;28;20405;-61
2023/03/10 07:39:16;;;;;;;0.10;0.10;;;2.60;99.90;;;;;;5030252;28;20056;-61
2023/03/10 07:41:41;;;;;;;0.65;0.65;;;2.60;99.90;;;;;;5029163;28;20069;-61
2023/03/10 07:44:07;;;;;;;0.32;0.32;;;2.70;99.90;;;;;;5027917;28;20037;-61
2023/03/10 07:46:33;;;;;;;0.65;0.65;;;2.60;99.90;;;;;;5029133;28;20049;-61
2023/03/10 07:49:02;;;;;;;0.20;0.20;;;2.70;99.90;;;;;;5012101;28;20175;-61
2023/03/10 07:51:29;;;;;;;0.20;0.20;;;2.60;99.90;;;;;;5027573;28;20072;-61
2023/03/10 07:53:54;;;;;;;2.40;0.55;;;2.60;99.90;;;;;;5029600;28;20041;-60
2023/03/10 07:56:20;;;;;;;0.25;0.25;;;2.60;99.90;;;;;;5028940;28;20106;-61
2023/03/10 07:58:45;;;;;;;0.10;0.10;;;2.60;99.90;;;;;;5022537;28;20139;-61
2023/03/10 08:01:17;;;;;;;1.27;1.10;;;2.60;99.90;;;;;;5025600;28;20147;-61
2023/03/10 08:03:43;;;;;;;0.15;0.15;;;2.60;99.90;;;;;;4989781;28;20406;-61
2023/03/10 08:06:15;;;;;;;0.45;0.45;;;2.60;99.90;;;;;;5004970;28;20046;-61
2023/03/10 08:08:41;;;;;;;0.30;0.30;;;2.60;99.90;;;;;;5009642;28;20124;-61
2023/03/10 08:11:09;;;;;;;0.13;0.13;;;2.60;99.90;;;;;;5007950;28;20164;-61
2023/03/10 08:13:35;;;;;;;0.25;0.25;;;2.60;99.90;;;;;;5009431;28;20076;-61
2023/03/10 08:16:01;;;;;;;0.63;0.63;;;2.60;99.90;;;;;;4992057;28;20489;-61
2023/03/10 08:18:28;;;;;;;0.40;0.40;;;2.70;99.90;;;;;;5009424;28;20096;-61
2023/03/10 08:20:55;;;;;;;0.15;0.15;;;2.60;99.90;;;;;;5004369;28;20064;-61
2023/03/10 08:23:20;;;;;;;1.08;0.95;;;2.70;99.90;;;;;;5004293;28;20116;-60
2023/03/10 08:25:46;;;;;;;1.15;0.85;;;2.60;99.90;;;;;;5006350;28;20181;-60
2023/03/10 08:28:12;;;;;;;1.23;1.20;;;2.60;99.90;;;;;;4988373;28;20470;-61
2023/03/10 08:30:38;;;;;;;0.50;0.50;;;2.70;99.90;;;;;;5009314;28;20076;-60
2023/03/10 08:33:07;;;;;;;1.42;1.20;;;2.60;99.90;;;;;;5005463;28;20042;-60
2023/03/10 08:35:35;;;;;;;2.72;1.50;;;2.60;99.90;;;;;;5007767;28;20607;-60
2023/03/10 08:38:02;;;;;;;1.42;1.33;;;2.70;99.90;;;;;;5009039;28;20045;-60
2023/03/10 08:40:27;;;;;;;1.45;0.68;;;2.60;99.90;;;;;;4984711;28;20133;-61
2023/03/10 08:42:53;;;;;;;0.45;0.45;;;2.70;99.90;;;;;;5008998;28;20133;-61
2023/03/10 08:45:18;;;;;;;0.10;0.10;;;2.70;99.90;;;;;;5007614;28;20048;-60
2023/03/10 08:47:44;;;;;;;0.50;0.50;;;2.70;99.90;;;;;;5007888;28;20041;-60
2023/03/10 08:50:11;;;;;;;0.30;0.30;;;2.70;99.90;;;;;;5007675;28;20041;-60
2023/03/10 08:52:37;;;;;;;0.52;0.52;;;2.70;99.90;;;;;;5009131;28;20128;-61
2023/03/10 08:55:04;;;;;;;1.15;1.15;;;2.70;99.90;;;;;;5006977;28;20129;-60
2023/03/10 08:57:30;;;;;;;0.90;0.90;;;2.70;99.90;;;;;;5008537;28;20056;-60
2023/03/10 08:59:56;;;;;;;0.47;0.45;;;2.70;99.90;;;;;;5006378;28;20037;-60
2023/03/10 09:02:22;;;;;;;1.75;1.65;;;2.70;99.90;;;;;;5007197;28;20103;-60
2023/03/10 09:04:49;;;;;;;0.28;0.28;;;2.70;99.90;;;;;;5006996;28;20550;-60
2023/03/10 09:07:14;;;;;;;2.15;1.55;;;2.70;99.90;;;;;;5007739;28;20071;-60
2023/03/10 09:09:40;;;;;;;0.60;0.60;;;2.70;99.90;;;;;;5006979;28;20600;-60
2023/03/10 09:12:07;;;;;;;0.65;0.65;;;2.70;99.90;;;;;;5007479;28;20030;-60
2023/03/10 09:14:34;;;;;;;0.50;0.50;;;2.80;99.90;;;;;;5006539;28;20046;-60
2023/03/10 09:16:59;;;;;;;1.75;1.55;;;2.80;99.90;;;;;;5006991;28;20053;-61
2023/03/10 09:19:25;;;;;;;1.10;0.63;;;2.90;99.90;;;;;;4999632;28;20050;-60
2023/03/10 09:21:51;;;;;;;3.60;3.30;;;2.90;99.90;;;;;;4988824;28;20064;-60
2023/03/10 09:24:18;;;;;;;0.22;0.22;;;2.90;99.90;;;;;;5007019;28;20081;-61
2023/03/10 09:26:43;;;;;;;0.70;0.55;;;2.90;99.90;;;;;;5007772;28;20563;-62
2023/03/10 09:29:09;;;;;;;1.80;0.95;;;2.90;99.90;;;;;;5004754;28;20048;-60
2023/03/10 09:31:36;;;;;;;0.30;0.30;;;2.90;99.90;;;;;;5007600;28;20048;-61
2023/03/10 09:34:03;;;;;;;0.45;0.45;;;2.90;99.90;;;;;;5008426;28;20061;-61
2023/03/10 09:36:29;;;;;;;0.60;0.60;;;2.90;99.90;;;;;;5005955;28;20053;-60
2023/03/10 09:38:56;;;;;;;1.30;1.25;;;2.80;99.90;;;;;;5005623;28;20402;-60
2023/03/10 09:41:25;;;;;;;0.10;0.10;;;2.80;99.90;;;;;;5004603;28;20053;-60
2023/03/10 09:44:17;;;;;;;0.60;0.60;;;2.80;99.90;;;;;;5003793;28;20124;-60
2023/03/10 09:46:54;;;;;;;3.20;1.67;;;2.70;99.90;;;;;;5006013;28;20042;-61
2023/03/10 09:49:34;;;;;;;0.10;0.10;;;2.80;99.90;;;;;;5005559;28;20038;-60
2023/03/10 09:52:22;;;;;;;0.95;0.85;;;2.80;99.90;;;;;;5005149;28;20045;-61
2023/03/10 09:54:59;;;;;;;0.10;0.10;;;2.80;99.90;;;;;;5006156;28;20072;-60
2023/03/10 09:57:25;;;;;;;3.20;0.77;;;2.80;99.90;;;;;;5007494;28;20449;-60
2023/03/10 09:59:57;;;;;;;0.22;0.22;;;2.90;99.90;;;;;;5006460;28;20042;-60
2023/03/10 10:02:31;;;;;;;0.10;0.10;;;2.90;99.90;;;;;;5008011;28;20045;-60
2023/03/10 10:05:01;;;;;;;0.47;0.47;;;3.00;99.90;;;;;;4992988;28;20050;-60
2023/03/10 10:07:36;;;;;;;4.45;2.78;;;3.10;99.90;;;;;;5002857;28;20058;-60
2023/03/10 10:10:10;;;;;;;0.57;0.57;;;3.10;99.90;;;;;;5007848;28;20045;-60
2023/03/10 10:12:36;;;;;;;0.38;0.38;;;3.20;99.90;;;;;;5006780;28;20052;-61
2023/03/10 10:15:15;;;;;;;1.20;1.20;;;3.20;99.90;;;;;;5006351;28;20042;-60
2023/03/10 10:17:41;;;;;;;0.22;0.22;;;3.10;99.90;;;;;;4991281;28;20045;-60
2023/03/10 10:20:29;;;;;;;0.73;0.73;;;3.10;99.90;;;;;;4991716;28;20107;-61
2023/03/10 10:22:55;;;;;;;0.75;0.75;;;3.10;99.90;;;;;;5008316;28;20042;-61
2023/03/10 10:25:23;;;;;;;1.17;0.82;;;3.20;99.90;;;;;;5010008;28;20046;-61
2023/03/10 10:27:54;;;;;;;1.30;1.27;;;3.10;99.90;;;;;;5011359;28;20038;-60
2023/03/10 10:30:31;;;;;;;0.20;0.20;;;3.10;99.90;;;;;;5009653;28;20440;-61
2023/03/10 10:33:01;;;;;;;0.10;0.10;;;3.10;99.90;;;;;;5010714;28;20128;-61
2023/03/10 10:35:30;;;;;;;0.75;0.75;;;3.10;99.90;;;;;;5010381;28;20080;-60
2023/03/10 10:38:02;;;;;;;0.43;0.43;;;3.10;99.90;;;;;;5011217;28;20129;-61
2023/03/10 10:40:34;;;;;;;1.00;1.00;;;3.10;99.90;;;;;;5009423;28;20069;-61
2023/03/10 10:43:04;;;;;;;0.57;0.57;;;3.10;99.90;;;;;;5009164;28;20037;-60
2023/03/10 10:45:38;;;;;;;0.22;0.22;;;3.10;99.90;;;;;;4999108;28;20125;-61
2023/03/10 10:48:05;;;;;;;3.65;3.03;;;3.00;99.90;;;;;;5004928;28;20112;-60
2023/03/10 10:50:35;;;;;;;1.13;1.13;;;3.00;99.90;;;;;;4991553;28;20042;-61
2023/03/10 10:53:15;;;;;;;2.45;2.25;;;3.00;99.90;;;;;;5009833;28;20053;-61
2023/03/10 10:55:42;;;;;;;0.20;0.20;;;3.00;99.90;;;;;;5010353;28;20127;-61
2023/03/10 10:58:29;;;;;;;0.57;0.57;;;3.10;99.90;;;;;;5010039;28;20050;-61
2023/03/10 11:00:58;;;;;;;0.50;0.50;;;3.10;99.90;;;;;;5010199;28;20042;-61
2023/03/10 11:03:34;;;;;;;0.65;0.65;;;3.20;99.90;;;;;;4992478;28;20050;-60
2023/03/10 11:06:11;;;;;;;2.15;1.98;;;3.30;99.90;;;;;;5009790;28;20050;-60
2023/03/10 11:08:39;;;;;;;0.10;0.10;;;3.30;99.90;;;;;;4988516;28;20157;-60
2023/03/10 11:11:30;;;;;;;1.67;0.68;;;3.30;99.90;;;;;;5010472;28;20612;-61
2023/03/10 11:14:10;;;;;;;0.73;0.73;;;3.20;99.90;;;;;;5007108;28;20073;-61
2023/03/10 11:17:01;;;;;;;0.30;0.30;;;3.30;99.90;;;;;;5009845;28;20601;-61
2023/03/10 11:19:26;;;;;;;1.17;1.08;;;3.40;99.90;;;;;;5005943;28;20053;-61
2023/03/10 11:21:58;;;;;;;0.10;0.10;;;3.40;99.90;;;;;;5009295;28;20069;-61
2023/03/10 11:24:37;;;;;;;0.30;0.30;;;3.40;99.90;;;;;;5000989;28;20047;-61
2023/03/10 11:27:24;;;;;;;1.95;1.85;;;3.40;99.90;;;;;;5009537;28;20053;-61
2023/03/10 11:30:08;;;;;;;0.10;0.10;;;3.40;99.90;;;;;;5009251;28;20104;-61
2023/03/10 11:32:45;;;;;;;0.70;0.70;;;3.30;99.90;;;;;;5004640;28;20081;-60
2023/03/10 11:35:33;;;;;;;0.30;0.30;;;3.40;99.90;;;;;;5003837;28;20041;-61
2023/03/10 11:38:33;;;;;;;0.30;0.30;;;3.40;99.90;;;;;;5005010;28;20046;-60
2023/03/10 11:41:12;;;;;;;0.20;0.20;;;3.30;99.90;;;;;;5006351;28;20160;-61
2023/03/10 11:43:52;;;;;;;0.10;0.10;;;3.30;99.90;;;;;;5007577;28;20566;-61
2023/03/10 11:46:28;;;;;;;1.38;1.15;;;3.30;99.90;;;;;;5007935;28;20038;-61
2023/03/10 11:49:11;;;;;;;0.73;0.73;;;3.40;99.90;;;;;;5005033;28;20045;-61
2023/03/10 11:51:37;;;;;;;0.20;0.20;;;3.40;99.90;;;;;;5005915;28;20331;-60
2023/03/10 11:54:40;;;;;;;0.63;0.63;;;3.40;99.90;;;;;;5010207;28;20053;-61
2023/03/10 11:57:15;;;;;;;0.50;0.50;;;3.30;99.90;;;;;;4996747;28;20058;-61
2023/03/10 11:59:51;;;;;;;0.20;0.20;;;3.30;99.90;;;;;;5009453;28;20060;-61
2023/03/10 12:02:40;;;;;;;0.40;0.40;;;3.40;99.90;;;;;;5009540;28;20049;-61
2023/03/10 12:05:22;;;;;;;4.57;2.30;;;3.40;99.90;;;;;;4997643;28;20042;-61
2023/03/10 12:07:52;;;;;;;0.10;0.10;;;3.30;99.90;;;;;;5008955;28;20744;-61
2023/03/10 12:10:20;;;;;;;0.38;0.38;;;3.40;99.90;;;;;;5008293;28;20058;-61
2023/03/10 12:12:52;;;;;;;0.10;0.10;;;3.40;99.90;;;;;;5008929;28;20045;-60
2023/03/10 12:15:25;;;;;;;1.05;1.05;;;3.40;99.90;;;;;;5001779;28;20087;-61
2023/03/10 12:17:53;;;;;;;0.15;0.15;;;3.50;99.90;;;;;;5006881;28;20045;-61
2023/03/10 12:20:18;;;;;;;0.10;0.10;;;3.40;99.90;;;;;;4996645;28;20054;-61
2023/03/10 12:22:45;;;;;;;0.43;0.43;;;3.50;99.90;;;;;;5006806;28;20041;-61
2023/03/10 12:25:31;;;;;;;0.20;0.20;;;3.50;99.90;;;;;;5005310;28;20041;-61
2023/03/10 12:28:15;;;;;;;0.10;0.10;;;3.50;99.90;;;;;;5009163;28;20045;-61
2023/03/10 12:31:22;;;;;;;0.30;0.30;;;3.50;99.90;;;;;;5008452;28;20099;-61
2023/03/10 12:33:49;;;;;;;0.82;0.82;;;3.50;99.90;;;;;;4930796;29;20120;-61
2023/03/10 12:36:36;;;;;;;0.10;0.10;;;3.50;99.90;;;;;;4985554;28;20058;-61
2023/03/10 12:39:29;;;;;;;0.10;0.10;;;3.50;99.90;;;;;;5004246;28;20125;-61
2023/03/10 12:42:20;;;;;;;0.10;0.10;;;3.40;99.90;;;;;;5009319;28;20057;-61
2023/03/10 12:44:51;;;;;;;1.05;1.05;;;3.40;99.90;;;;;;5007600;28;20046;-61
2023/03/10 12:47:25;;;;;;;0.63;0.63;;;3.40;99.90;;;;;;5009071;28;20092;-61
2023/03/10 12:50:01;;;;;;;0.13;0.13;;;3.30;99.90;;;;;;5008200;28;20038;-61
2023/03/10 12:52:39;;;;;;;0.10;0.10;;;3.30;99.90;;;;;;5007026;28;20050;-61
2023/03/10 12:55:26;;;;;;;0.17;0.17;;;3.30;99.90;;;;;;5007336;28;20045;-61
2023/03/10 12:57:56;;;;;;;0.30;0.30;;;3.30;99.90;;;;;;5007890;28;20054;-61
2023/03/10 13:00:43;;;;;;;0.57;0.50;;;3.30;99.90;;;;;;5004816;28;20082;-61
2023/03/10 13:03:08;;;;;;;0.10;0.10;;;3.30;99.90;;;;;;5006608;28;20057;-61
2023/03/10 13:05:38;;;;;;;0.17;0.17;;;3.20;99.90;;;;;;4989316;28;20041;-61
2023/03/10 13:08:40;;;;;;;0.10;0.10;;;3.20;99.90;;;;;;5005521;28;20054;-61